sensor_id;sensor_type;location;lat;lon;timestamp;P1;durP1;ratioP1;P2;durP2;ratioP2
71753;SDS011;59593;51.716;7.016;2023-12-20T00:00:54;21.97;;;16.20;;
71753;SDS011;59593;51.716;7.016;2023-12-20T00:03:20;22.00;;;15.57;;
71753;SDS011;59593;51.716;7.016;2023-12-20T00:05:45;19.13;;;12.67;;
71753;SDS011;59593;51.716;7.016;2023-12-20T00:08:12;18.83;;;12.50;;
71753;SDS011;59593;51.716;7.016;2023-12-20T00:10:37;17.57;;;11.50;;
71753;SDS011;59593;51.716;7.016;2023-12-20T00:13:03;20.13;;;11.93;;
71753;SDS011;59593;51.716;7.016;2023-12-20T00:15:28;18.33;;;12.30;;
71753;SDS011;59593;51.716;7.016;2023-12-20T00:17:54;17.37;;;11.70;;
71753;SDS011;59593;51.716;7.016;2023-12-20T00:20:20;16.93;;;11.43;;
71753;SDS011;59593;51.716;7.016;2023-12-20T00:22:45;15.53;;;10.77;;
71753;SDS011;59593;51.716;7.016;2023-12-20T00:25:11;15.90;;;10.17;;
71753;SDS011;59593;51.716;7.016;2023-12-20T00:27:37;19.47;;;10.37;;
71753;SDS011;59593;51.716;7.016;2023-12-20T00:30:02;15.57;;;9.73;;
71753;SDS011;59593;51.716;7.016;2023-12-20T00:32:28;16.27;;;8.77;;
71753;SDS011;59593;51.716;7.016;2023-12-20T00:34:54;16.43;;;8.73;;
71753;SDS011;59593;51.716;7.016;2023-12-20T00:37:19;16.10;;;8.67;;
71753;SDS011;59593;51.716;7.016;2023-12-20T00:39:45;17.33;;;8.10;;
71753;SDS011;59593;51.716;7.016;2023-12-20T00:42:10;18.40;;;8.03;;
71753;SDS011;59593;51.716;7.016;2023-12-20T00:44:36;13.60;;;7.00;;
71753;SDS011;59593;51.716;7.016;2023-12-20T00:47:01;14.70;;;6.60;;
71753;SDS011;59593;51.716;7.016;2023-12-20T00:49:27;14.80;;;6.43;;
71753;SDS011;59593;51.716;7.016;2023-12-20T00:51:52;16.87;;;6.70;;
71753;SDS011;59593;51.716;7.016;2023-12-20T00:54:18;11.90;;;6.10;;
71753;SDS011;59593;51.716;7.016;2023-12-20T00:56:44;9.43;;;5.73;;
71753;SDS011;59593;51.716;7.016;2023-12-20T00:59:09;10.97;;;5.33;;
71753;SDS011;59593;51.716;7.016;2023-12-20T01:01:35;10.97;;;5.17;;
71753;SDS011;59593;51.716;7.016;2023-12-20T01:04:03;11.53;;;5.10;;
71753;SDS011;59593;51.716;7.016;2023-12-20T01:06:29;11.63;;;4.47;;
71753;SDS011;59593;51.716;7.016;2023-12-20T01:08:54;12.00;;;4.47;;
71753;SDS011;59593;51.716;7.016;2023-12-20T01:11:20;9.00;;;4.30;;
71753;SDS011;59593;51.716;7.016;2023-12-20T01:13:45;9.60;;;4.27;;
71753;SDS011;59593;51.716;7.016;2023-12-20T01:16:11;12.10;;;4.40;;
71753;SDS011;59593;51.716;7.016;2023-12-20T01:18:37;12.43;;;4.00;;
71753;SDS011;59593;51.716;7.016;2023-12-20T01:21:04;12.10;;;4.07;;
71753;SDS011;59593;51.716;7.016;2023-12-20T01:23:30;10.00;;;3.77;;
71753;SDS011;59593;51.716;7.016;2023-12-20T01:25:56;8.33;;;4.10;;
71753;SDS011;59593;51.716;7.016;2023-12-20T01:28:24;13.87;;;4.87;;
71753;SDS011;59593;51.716;7.016;2023-12-20T01:30:50;11.40;;;4.87;;
71753;SDS011;59593;51.716;7.016;2023-12-20T01:33:16;14.00;;;5.07;;
71753;SDS011;59593;51.716;7.016;2023-12-20T01:35:41;14.53;;;5.33;;
71753;SDS011;59593;51.716;7.016;2023-12-20T01:38:07;17.20;;;4.70;;
71753;SDS011;59593;51.716;7.016;2023-12-20T01:40:34;14.40;;;5.23;;
71753;SDS011;59593;51.716;7.016;2023-12-20T01:43:06;16.30;;;5.73;;
71753;SDS011;59593;51.716;7.016;2023-12-20T01:45:33;12.37;;;5.50;;
71753;SDS011;59593;51.716;7.016;2023-12-20T01:47:59;15.53;;;5.83;;
71753;SDS011;59593;51.716;7.016;2023-12-20T01:50:27;12.93;;;5.50;;
71753;SDS011;59593;51.716;7.016;2023-12-20T01:52:55;12.93;;;5.63;;
71753;SDS011;59593;51.716;7.016;2023-12-20T01:55:23;16.70;;;5.97;;
71753;SDS011;59593;51.716;7.016;2023-12-20T01:57:49;14.00;;;5.63;;
71753;SDS011;59593;51.716;7.016;2023-12-20T02:00:15;15.63;;;5.93;;
71753;SDS011;59593;51.716;7.016;2023-12-20T02:02:42;13.43;;;6.00;;
71753;SDS011;59593;51.716;7.016;2023-12-20T02:05:09;12.40;;;5.50;;
71753;SDS011;59593;51.716;7.016;2023-12-20T02:07:37;16.33;;;6.10;;
71753;SDS011;59593;51.716;7.016;2023-12-20T02:10:03;14.80;;;6.00;;
71753;SDS011;59593;51.716;7.016;2023-12-20T02:12:31;12.67;;;5.83;;
71753;SDS011;59593;51.716;7.016;2023-12-20T02:14:57;13.80;;;6.00;;
71753;SDS011;59593;51.716;7.016;2023-12-20T02:17:22;18.77;;;6.63;;
71753;SDS011;59593;51.716;7.016;2023-12-20T02:19:49;12.93;;;6.03;;
71753;SDS011;59593;51.716;7.016;2023-12-20T02:22:15;13.57;;;6.60;;
71753;SDS011;59593;51.716;7.016;2023-12-20T02:24:40;18.47;;;6.33;;
71753;SDS011;59593;51.716;7.016;2023-12-20T02:27:06;18.73;;;6.47;;
71753;SDS011;59593;51.716;7.016;2023-12-20T02:29:33;18.77;;;6.50;;
71753;SDS011;59593;51.716;7.016;2023-12-20T02:31:59;14.57;;;6.83;;
71753;SDS011;59593;51.716;7.016;2023-12-20T02:34:25;14.47;;;6.07;;
71753;SDS011;59593;51.716;7.016;2023-12-20T02:36:50;21.07;;;6.23;;
71753;SDS011;59593;51.716;7.016;2023-12-20T02:39:16;21.87;;;7.63;;
71753;SDS011;59593;51.716;7.016;2023-12-20T02:41:43;16.77;;;6.27;;
71753;SDS011;59593;51.716;7.016;2023-12-20T02:44:08;19.97;;;6.47;;
71753;SDS011;59593;51.716;7.016;2023-12-20T02:46:34;20.13;;;6.70;;
71753;SDS011;59593;51.716;7.016;2023-12-20T02:49:00;20.87;;;6.70;;
71753;SDS011;59593;51.716;7.016;2023-12-20T02:51:25;20.07;;;7.60;;
71753;SDS011;59593;51.716;7.016;2023-12-20T02:53:51;15.57;;;6.53;;
71753;SDS011;59593;51.716;7.016;2023-12-20T02:56:16;13.40;;;5.83;;
71753;SDS011;59593;51.716;7.016;2023-12-20T02:58:42;17.67;;;6.17;;
71753;SDS011;59593;51.716;7.016;2023-12-20T03:01:08;16.23;;;6.30;;
71753;SDS011;59593;51.716;7.016;2023-12-20T03:03:33;16.33;;;5.80;;
71753;SDS011;59593;51.716;7.016;2023-12-20T03:05:59;16.83;;;6.13;;
71753;SDS011;59593;51.716;7.016;2023-12-20T03:08:25;16.17;;;5.80;;
71753;SDS011;59593;51.716;7.016;2023-12-20T03:10:50;19.17;;;6.53;;
71753;SDS011;59593;51.716;7.016;2023-12-20T03:13:16;13.93;;;6.03;;
71753;SDS011;59593;51.716;7.016;2023-12-20T03:15:42;19.20;;;6.13;;
71753;SDS011;59593;51.716;7.016;2023-12-20T03:18:07;15.80;;;6.97;;
71753;SDS011;59593;51.716;7.016;2023-12-20T03:20:33;19.67;;;7.77;;
71753;SDS011;59593;51.716;7.016;2023-12-20T03:23:02;20.20;;;7.87;;
71753;SDS011;59593;51.716;7.016;2023-12-20T03:25:28;20.80;;;9.07;;
71753;SDS011;59593;51.716;7.016;2023-12-20T03:27:53;16.60;;;7.50;;
71753;SDS011;59593;51.716;7.016;2023-12-20T03:30:19;25.43;;;8.77;;
71753;SDS011;59593;51.716;7.016;2023-12-20T03:32:45;22.27;;;8.83;;
71753;SDS011;59593;51.716;7.016;2023-12-20T03:35:10;22.00;;;8.13;;
71753;SDS011;59593;51.716;7.016;2023-12-20T03:37:36;19.47;;;8.13;;
71753;SDS011;59593;51.716;7.016;2023-12-20T03:40:02;19.10;;;8.30;;
71753;SDS011;59593;51.716;7.016;2023-12-20T03:42:28;20.13;;;8.27;;
71753;SDS011;59593;51.716;7.016;2023-12-20T03:44:54;16.00;;;8.07;;
71753;SDS011;59593;51.716;7.016;2023-12-20T03:47:19;18.37;;;7.83;;
71753;SDS011;59593;51.716;7.016;2023-12-20T03:49:45;23.07;;;7.97;;
71753;SDS011;59593;51.716;7.016;2023-12-20T03:52:10;21.73;;;8.30;;
71753;SDS011;59593;51.716;7.016;2023-12-20T03:54:37;18.37;;;7.83;;
71753;SDS011;59593;51.716;7.016;2023-12-20T03:57:02;24.13;;;8.17;;
71753;SDS011;59593;51.716;7.016;2023-12-20T03:59:28;23.17;;;7.60;;
71753;SDS011;59593;51.716;7.016;2023-12-20T04:01:54;22.43;;;6.63;;
71753;SDS011;59593;51.716;7.016;2023-12-20T04:04:20;16.13;;;5.80;;
71753;SDS011;59593;51.716;7.016;2023-12-20T04:06:45;21.13;;;6.87;;
71753;SDS011;59593;51.716;7.016;2023-12-20T04:09:12;19.27;;;6.27;;
71753;SDS011;59593;51.716;7.016;2023-12-20T04:11:38;18.47;;;6.37;;
71753;SDS011;59593;51.716;7.016;2023-12-20T04:14:03;16.57;;;6.13;;
71753;SDS011;59593;51.716;7.016;2023-12-20T04:16:32;16.43;;;5.83;;
71753;SDS011;59593;51.716;7.016;2023-12-20T04:18:58;16.30;;;5.53;;
71753;SDS011;59593;51.716;7.016;2023-12-20T04:21:23;19.03;;;5.80;;
71753;SDS011;59593;51.716;7.016;2023-12-20T04:23:49;16.03;;;5.30;;
71753;SDS011;59593;51.716;7.016;2023-12-20T04:26:15;19.10;;;5.90;;
71753;SDS011;59593;51.716;7.016;2023-12-20T04:28:40;16.13;;;5.70;;
71753;SDS011;59593;51.716;7.016;2023-12-20T04:31:07;19.73;;;6.10;;
71753;SDS011;59593;51.716;7.016;2023-12-20T04:33:32;21.97;;;6.23;;
71753;SDS011;59593;51.716;7.016;2023-12-20T04:35:58;20.33;;;6.93;;
71753;SDS011;59593;51.716;7.016;2023-12-20T04:38:24;21.33;;;6.47;;
71753;SDS011;59593;51.716;7.016;2023-12-20T04:40:50;20.03;;;6.17;;
71753;SDS011;59593;51.716;7.016;2023-12-20T04:43:16;17.57;;;5.87;;
71753;SDS011;59593;51.716;7.016;2023-12-20T04:45:42;17.63;;;5.90;;
71753;SDS011;59593;51.716;7.016;2023-12-20T04:48:07;19.30;;;6.20;;
71753;SDS011;59593;51.716;7.016;2023-12-20T04:50:33;18.00;;;5.90;;
71753;SDS011;59593;51.716;7.016;2023-12-20T04:52:59;17.80;;;5.93;;
71753;SDS011;59593;51.716;7.016;2023-12-20T04:55:26;21.30;;;5.60;;
71753;SDS011;59593;51.716;7.016;2023-12-20T04:57:51;19.97;;;5.37;;
71753;SDS011;59593;51.716;7.016;2023-12-20T05:00:17;19.73;;;5.70;;
71753;SDS011;59593;51.716;7.016;2023-12-20T05:02:43;15.03;;;5.27;;
71753;SDS011;59593;51.716;7.016;2023-12-20T05:08:06;14.70;;;4.67;;
71753;SDS011;59593;51.716;7.016;2023-12-20T05:10:31;17.47;;;5.03;;
71753;SDS011;59593;51.716;7.016;2023-12-20T05:12:57;13.63;;;5.27;;
71753;SDS011;59593;51.716;7.016;2023-12-20T05:15:22;19.20;;;5.40;;
71753;SDS011;59593;51.716;7.016;2023-12-20T05:17:48;16.70;;;4.77;;
71753;SDS011;59593;51.716;7.016;2023-12-20T05:20:14;14.03;;;4.97;;
71753;SDS011;59593;51.716;7.016;2023-12-20T05:22:40;18.60;;;4.73;;
71753;SDS011;59593;51.716;7.016;2023-12-20T05:25:06;14.43;;;5.20;;
71753;SDS011;59593;51.716;7.016;2023-12-20T05:27:32;27.20;;;5.70;;
71753;SDS011;59593;51.716;7.016;2023-12-20T05:29:57;15.37;;;5.40;;
71753;SDS011;59593;51.716;7.016;2023-12-20T05:32:23;21.40;;;5.67;;
71753;SDS011;59593;51.716;7.016;2023-12-20T05:34:49;20.60;;;5.70;;
71753;SDS011;59593;51.716;7.016;2023-12-20T05:37:14;19.63;;;5.63;;
71753;SDS011;59593;51.716;7.016;2023-12-20T05:39:40;21.20;;;5.90;;
71753;SDS011;59593;51.716;7.016;2023-12-20T05:42:06;20.53;;;5.43;;
71753;SDS011;59593;51.716;7.016;2023-12-20T05:44:31;14.03;;;4.43;;
71753;SDS011;59593;51.716;7.016;2023-12-20T05:46:57;18.80;;;5.43;;
71753;SDS011;59593;51.716;7.016;2023-12-20T05:49:22;15.00;;;5.07;;
71753;SDS011;59593;51.716;7.016;2023-12-20T05:51:48;21.27;;;5.10;;
71753;SDS011;59593;51.716;7.016;2023-12-20T05:54:15;17.97;;;5.37;;
71753;SDS011;59593;51.716;7.016;2023-12-20T05:56:40;17.97;;;4.80;;
71753;SDS011;59593;51.716;7.016;2023-12-20T05:59:06;17.17;;;4.77;;
71753;SDS011;59593;51.716;7.016;2023-12-20T06:01:32;18.83;;;4.90;;
71753;SDS011;59593;51.716;7.016;2023-12-20T06:03:57;17.00;;;5.43;;
71753;SDS011;59593;51.716;7.016;2023-12-20T06:06:23;19.67;;;5.17;;
71753;SDS011;59593;51.716;7.016;2023-12-20T06:08:49;19.33;;;5.53;;
71753;SDS011;59593;51.716;7.016;2023-12-20T06:11:14;12.97;;;4.90;;
71753;SDS011;59593;51.716;7.016;2023-12-20T06:13:40;19.93;;;5.87;;
71753;SDS011;59593;51.716;7.016;2023-12-20T06:16:06;22.07;;;5.20;;
71753;SDS011;59593;51.716;7.016;2023-12-20T06:18:34;18.50;;;5.90;;
71753;SDS011;59593;51.716;7.016;2023-12-20T06:21:01;16.10;;;6.73;;
71753;SDS011;59593;51.716;7.016;2023-12-20T06:23:27;18.13;;;5.87;;
71753;SDS011;59593;51.716;7.016;2023-12-20T06:25:53;23.50;;;6.90;;
71753;SDS011;59593;51.716;7.016;2023-12-20T06:28:18;21.47;;;6.47;;
71753;SDS011;59593;51.716;7.016;2023-12-20T06:30:44;19.33;;;6.50;;
71753;SDS011;59593;51.716;7.016;2023-12-20T06:33:12;22.97;;;6.10;;
71753;SDS011;59593;51.716;7.016;2023-12-20T06:35:38;23.93;;;6.53;;
71753;SDS011;59593;51.716;7.016;2023-12-20T06:38:04;18.90;;;6.10;;
71753;SDS011;59593;51.716;7.016;2023-12-20T06:40:29;18.87;;;5.90;;
71753;SDS011;59593;51.716;7.016;2023-12-20T06:42:55;19.63;;;6.60;;
71753;SDS011;59593;51.716;7.016;2023-12-20T06:45:21;26.10;;;7.57;;
71753;SDS011;59593;51.716;7.016;2023-12-20T06:47:46;18.63;;;6.87;;
71753;SDS011;59593;51.716;7.016;2023-12-20T06:50:12;18.40;;;6.83;;
71753;SDS011;59593;51.716;7.016;2023-12-20T06:52:37;16.23;;;6.80;;
71753;SDS011;59593;51.716;7.016;2023-12-20T06:55:03;19.53;;;6.83;;
71753;SDS011;59593;51.716;7.016;2023-12-20T06:57:29;21.63;;;7.10;;
71753;SDS011;59593;51.716;7.016;2023-12-20T06:59:55;19.40;;;7.87;;
71753;SDS011;59593;51.716;7.016;2023-12-20T07:02:21;21.83;;;7.23;;
71753;SDS011;59593;51.716;7.016;2023-12-20T07:04:47;19.87;;;7.00;;
71753;SDS011;59593;51.716;7.016;2023-12-20T07:07:13;18.63;;;7.27;;
71753;SDS011;59593;51.716;7.016;2023-12-20T07:09:40;17.27;;;6.90;;
71753;SDS011;59593;51.716;7.016;2023-12-20T07:12:08;21.77;;;6.90;;
71753;SDS011;59593;51.716;7.016;2023-12-20T07:14:34;23.77;;;6.63;;
71753;SDS011;59593;51.716;7.016;2023-12-20T07:17:00;17.87;;;6.30;;
71753;SDS011;59593;51.716;7.016;2023-12-20T07:19:26;21.07;;;6.57;;
71753;SDS011;59593;51.716;7.016;2023-12-20T07:21:51;27.13;;;6.77;;
71753;SDS011;59593;51.716;7.016;2023-12-20T07:24:18;14.77;;;5.73;;
71753;SDS011;59593;51.716;7.016;2023-12-20T07:26:43;19.57;;;6.53;;
71753;SDS011;59593;51.716;7.016;2023-12-20T07:29:09;21.70;;;6.30;;
71753;SDS011;59593;51.716;7.016;2023-12-20T07:31:35;19.37;;;6.20;;
71753;SDS011;59593;51.716;7.016;2023-12-20T07:34:00;19.80;;;6.43;;
71753;SDS011;59593;51.716;7.016;2023-12-20T07:36:26;20.37;;;5.63;;
71753;SDS011;59593;51.716;7.016;2023-12-20T07:38:51;16.57;;;5.97;;
71753;SDS011;59593;51.716;7.016;2023-12-20T07:41:17;18.90;;;6.37;;
71753;SDS011;59593;51.716;7.016;2023-12-20T07:43:46;14.37;;;5.60;;
71753;SDS011;59593;51.716;7.016;2023-12-20T07:46:11;22.23;;;6.00;;
71753;SDS011;59593;51.716;7.016;2023-12-20T07:48:37;19.33;;;5.97;;
71753;SDS011;59593;51.716;7.016;2023-12-20T07:51:04;21.50;;;6.33;;
71753;SDS011;59593;51.716;7.016;2023-12-20T07:53:34;19.50;;;6.37;;
71753;SDS011;59593;51.716;7.016;2023-12-20T07:56:12;20.03;;;6.07;;
71753;SDS011;59593;51.716;7.016;2023-12-20T07:58:41;21.63;;;6.40;;
71753;SDS011;59593;51.716;7.016;2023-12-20T08:01:06;23.90;;;5.83;;
71753;SDS011;59593;51.716;7.016;2023-12-20T08:03:32;23.23;;;5.40;;
71753;SDS011;59593;51.716;7.016;2023-12-20T08:05:57;15.17;;;5.17;;
71753;SDS011;59593;51.716;7.016;2023-12-20T08:08:25;16.00;;;5.33;;
71753;SDS011;59593;51.716;7.016;2023-12-20T08:10:51;21.37;;;6.03;;
71753;SDS011;59593;51.716;7.016;2023-12-20T08:13:16;19.17;;;5.63;;
71753;SDS011;59593;51.716;7.016;2023-12-20T08:15:43;14.00;;;4.90;;
71753;SDS011;59593;51.716;7.016;2023-12-20T08:18:09;15.50;;;5.23;;
71753;SDS011;59593;51.716;7.016;2023-12-20T08:20:34;18.43;;;5.17;;
71753;SDS011;59593;51.716;7.016;2023-12-20T08:23:00;20.47;;;5.37;;
71753;SDS011;59593;51.716;7.016;2023-12-20T08:25:25;17.57;;;5.57;;
71753;SDS011;59593;51.716;7.016;2023-12-20T08:27:52;19.97;;;5.40;;
71753;SDS011;59593;51.716;7.016;2023-12-20T08:30:19;20.57;;;5.73;;
71753;SDS011;59593;51.716;7.016;2023-12-20T08:32:47;22.27;;;5.00;;
71753;SDS011;59593;51.716;7.016;2023-12-20T08:35:13;19.87;;;5.40;;
71753;SDS011;59593;51.716;7.016;2023-12-20T08:37:41;16.07;;;5.10;;
71753;SDS011;59593;51.716;7.016;2023-12-20T08:40:06;20.57;;;5.17;;
71753;SDS011;59593;51.716;7.016;2023-12-20T08:42:32;24.27;;;5.70;;
71753;SDS011;59593;51.716;7.016;2023-12-20T08:45:01;15.60;;;5.00;;
71753;SDS011;59593;51.716;7.016;2023-12-20T08:47:29;16.63;;;5.23;;
71753;SDS011;59593;51.716;7.016;2023-12-20T08:49:55;20.37;;;5.20;;
71753;SDS011;59593;51.716;7.016;2023-12-20T08:52:22;19.73;;;5.27;;
71753;SDS011;59593;51.716;7.016;2023-12-20T08:54:48;15.80;;;5.43;;
71753;SDS011;59593;51.716;7.016;2023-12-20T08:57:16;15.10;;;5.07;;
71753;SDS011;59593;51.716;7.016;2023-12-20T08:59:46;15.63;;;4.40;;
71753;SDS011;59593;51.716;7.016;2023-12-20T09:02:13;14.07;;;4.90;;
71753;SDS011;59593;51.716;7.016;2023-12-20T09:04:39;19.70;;;4.90;;
71753;SDS011;59593;51.716;7.016;2023-12-20T09:07:05;14.37;;;4.90;;
71753;SDS011;59593;51.716;7.016;2023-12-20T09:09:30;19.63;;;5.50;;
71753;SDS011;59593;51.716;7.016;2023-12-20T09:11:57;18.13;;;5.47;;
71753;SDS011;59593;51.716;7.016;2023-12-20T09:14:25;14.43;;;5.07;;
71753;SDS011;59593;51.716;7.016;2023-12-20T09:16:51;16.80;;;5.60;;
71753;SDS011;59593;51.716;7.016;2023-12-20T09:19:17;15.77;;;4.80;;
71753;SDS011;59593;51.716;7.016;2023-12-20T09:21:43;20.73;;;5.03;;
71753;SDS011;59593;51.716;7.016;2023-12-20T09:24:08;25.20;;;5.40;;
71753;SDS011;59593;51.716;7.016;2023-12-20T09:26:34;15.47;;;5.43;;
71753;SDS011;59593;51.716;7.016;2023-12-20T09:28:59;22.50;;;4.83;;
71753;SDS011;59593;51.716;7.016;2023-12-20T09:31:25;15.10;;;5.13;;
71753;SDS011;59593;51.716;7.016;2023-12-20T09:33:51;20.53;;;4.90;;
71753;SDS011;59593;51.716;7.016;2023-12-20T09:36:16;20.70;;;5.27;;
71753;SDS011;59593;51.716;7.016;2023-12-20T09:38:42;17.83;;;4.33;;
71753;SDS011;59593;51.716;7.016;2023-12-20T09:41:07;21.80;;;4.77;;
71753;SDS011;59593;51.716;7.016;2023-12-20T09:43:35;16.07;;;4.77;;
71753;SDS011;59593;51.716;7.016;2023-12-20T09:46:02;18.40;;;4.50;;
71753;SDS011;59593;51.716;7.016;2023-12-20T09:48:32;14.73;;;4.43;;
71753;SDS011;59593;51.716;7.016;2023-12-20T09:50:58;13.50;;;4.30;;
71753;SDS011;59593;51.716;7.016;2023-12-20T09:53:24;16.40;;;4.13;;
71753;SDS011;59593;51.716;7.016;2023-12-20T09:55:55;20.07;;;4.87;;
71753;SDS011;59593;51.716;7.016;2023-12-20T09:58:24;21.77;;;5.33;;
71753;SDS011;59593;51.716;7.016;2023-12-20T10:00:50;16.60;;;5.27;;
71753;SDS011;59593;51.716;7.016;2023-12-20T10:03:17;15.30;;;4.47;;
71753;SDS011;59593;51.716;7.016;2023-12-20T10:05:48;17.40;;;4.63;;
71753;SDS011;59593;51.716;7.016;2023-12-20T10:08:17;15.30;;;4.50;;
71753;SDS011;59593;51.716;7.016;2023-12-20T10:10:46;19.80;;;4.60;;
71753;SDS011;59593;51.716;7.016;2023-12-20T10:13:12;19.50;;;5.07;;
71753;SDS011;59593;51.716;7.016;2023-12-20T10:15:38;19.27;;;5.03;;
71753;SDS011;59593;51.716;7.016;2023-12-20T10:18:05;24.73;;;5.23;;
71753;SDS011;59593;51.716;7.016;2023-12-20T10:20:32;15.40;;;4.53;;
71753;SDS011;59593;51.716;7.016;2023-12-20T10:22:58;20.87;;;5.17;;
71753;SDS011;59593;51.716;7.016;2023-12-20T10:25:25;16.53;;;4.93;;
71753;SDS011;59593;51.716;7.016;2023-12-20T10:30:37;18.07;;;4.40;;
71753;SDS011;59593;51.716;7.016;2023-12-20T10:33:03;21.93;;;4.97;;
71753;SDS011;59593;51.716;7.016;2023-12-20T10:35:31;16.33;;;5.43;;
71753;SDS011;59593;51.716;7.016;2023-12-20T10:37:57;17.30;;;4.73;;
71753;SDS011;59593;51.716;7.016;2023-12-20T10:40:27;16.83;;;5.00;;
71753;SDS011;59593;51.716;7.016;2023-12-20T10:42:54;21.07;;;4.90;;
71753;SDS011;59593;51.716;7.016;2023-12-20T10:45:22;19.83;;;4.70;;
71753;SDS011;59593;51.716;7.016;2023-12-20T10:47:48;20.10;;;5.30;;
71753;SDS011;59593;51.716;7.016;2023-12-20T10:50:15;20.03;;;4.70;;
71753;SDS011;59593;51.716;7.016;2023-12-20T10:52:43;18.33;;;6.27;;
71753;SDS011;59593;51.716;7.016;2023-12-20T10:55:10;20.57;;;7.77;;
71753;SDS011;59593;51.716;7.016;2023-12-20T10:57:36;19.33;;;7.00;;
71753;SDS011;59593;51.716;7.016;2023-12-20T11:00:02;23.90;;;5.43;;
71753;SDS011;59593;51.716;7.016;2023-12-20T11:02:32;16.50;;;5.60;;
71753;SDS011;59593;51.716;7.016;2023-12-20T11:07:42;20.83;;;6.23;;
71753;SDS011;59593;51.716;7.016;2023-12-20T11:10:17;17.80;;;5.23;;
71753;SDS011;59593;51.716;7.016;2023-12-20T11:12:53;18.47;;;5.37;;
71753;SDS011;59593;51.716;7.016;2023-12-20T11:15:24;18.60;;;5.23;;
71753;SDS011;59593;51.716;7.016;2023-12-20T11:17:56;17.30;;;4.73;;
71753;SDS011;59593;51.716;7.016;2023-12-20T11:20:23;20.00;;;5.80;;
71753;SDS011;59593;51.716;7.016;2023-12-20T11:22:59;14.70;;;4.40;;
71753;SDS011;59593;51.716;7.016;2023-12-20T11:25:25;19.13;;;5.27;;
71753;SDS011;59593;51.716;7.016;2023-12-20T11:28:08;18.87;;;5.63;;
71753;SDS011;59593;51.716;7.016;2023-12-20T11:30:41;19.53;;;5.53;;
71753;SDS011;59593;51.716;7.016;2023-12-20T11:33:07;15.07;;;5.43;;
71753;SDS011;59593;51.716;7.016;2023-12-20T11:35:33;17.20;;;5.70;;
71753;SDS011;59593;51.716;7.016;2023-12-20T11:38:00;20.97;;;6.30;;
71753;SDS011;59593;51.716;7.016;2023-12-20T11:40:26;17.03;;;5.77;;
71753;SDS011;59593;51.716;7.016;2023-12-20T11:42:51;17.40;;;5.00;;
71753;SDS011;59593;51.716;7.016;2023-12-20T11:45:23;20.60;;;5.53;;
71753;SDS011;59593;51.716;7.016;2023-12-20T11:47:49;15.43;;;5.07;;
71753;SDS011;59593;51.716;7.016;2023-12-20T11:50:16;15.80;;;5.23;;
71753;SDS011;59593;51.716;7.016;2023-12-20T11:52:43;16.90;;;5.37;;
71753;SDS011;59593;51.716;7.016;2023-12-20T11:55:09;20.83;;;6.10;;
71753;SDS011;59593;51.716;7.016;2023-12-20T11:57:35;22.53;;;5.63;;
71753;SDS011;59593;51.716;7.016;2023-12-20T12:00:02;16.90;;;5.70;;
71753;SDS011;59593;51.716;7.016;2023-12-20T12:02:28;19.43;;;5.57;;
71753;SDS011;59593;51.716;7.016;2023-12-20T12:04:55;18.77;;;5.30;;
71753;SDS011;59593;51.716;7.016;2023-12-20T12:07:21;24.30;;;5.87;;
71753;SDS011;59593;51.716;7.016;2023-12-20T12:09:47;19.90;;;6.00;;
71753;SDS011;59593;51.716;7.016;2023-12-20T12:12:13;22.80;;;5.57;;
71753;SDS011;59593;51.716;7.016;2023-12-20T12:14:39;15.60;;;4.90;;
71753;SDS011;59593;51.716;7.016;2023-12-20T12:17:10;14.13;;;4.80;;
71753;SDS011;59593;51.716;7.016;2023-12-20T12:19:37;18.13;;;5.77;;
71753;SDS011;59593;51.716;7.016;2023-12-20T12:22:13;11.00;;;4.27;;
71753;SDS011;59593;51.716;7.016;2023-12-20T12:24:41;13.23;;;4.20;;
71753;SDS011;59593;51.716;7.016;2023-12-20T12:27:08;16.03;;;4.50;;
71753;SDS011;59593;51.716;7.016;2023-12-20T12:29:34;18.23;;;5.37;;
71753;SDS011;59593;51.716;7.016;2023-12-20T12:32:01;19.10;;;4.83;;
71753;SDS011;59593;51.716;7.016;2023-12-20T12:34:30;15.97;;;4.70;;
71753;SDS011;59593;51.716;7.016;2023-12-20T12:36:56;21.70;;;5.00;;
71753;SDS011;59593;51.716;7.016;2023-12-20T12:39:23;16.97;;;5.13;;
71753;SDS011;59593;51.716;7.016;2023-12-20T12:41:52;18.33;;;5.10;;
71753;SDS011;59593;51.716;7.016;2023-12-20T12:44:19;14.53;;;4.67;;
71753;SDS011;59593;51.716;7.016;2023-12-20T12:46:45;15.57;;;4.97;;
71753;SDS011;59593;51.716;7.016;2023-12-20T12:49:12;16.00;;;4.93;;
71753;SDS011;59593;51.716;7.016;2023-12-20T12:51:38;13.97;;;4.67;;
71753;SDS011;59593;51.716;7.016;2023-12-20T12:54:03;18.60;;;5.13;;
71753;SDS011;59593;51.716;7.016;2023-12-20T12:56:29;17.60;;;5.10;;
71753;SDS011;59593;51.716;7.016;2023-12-20T12:58:55;19.57;;;5.17;;
71753;SDS011;59593;51.716;7.016;2023-12-20T13:01:21;20.63;;;5.17;;
71753;SDS011;59593;51.716;7.016;2023-12-20T13:03:47;13.97;;;4.33;;
71753;SDS011;59593;51.716;7.016;2023-12-20T13:06:12;13.37;;;4.73;;
71753;SDS011;59593;51.716;7.016;2023-12-20T13:08:38;18.47;;;5.30;;
71753;SDS011;59593;51.716;7.016;2023-12-20T13:11:04;16.03;;;5.00;;
71753;SDS011;59593;51.716;7.016;2023-12-20T13:13:30;17.70;;;5.40;;
71753;SDS011;59593;51.716;7.016;2023-12-20T13:15:56;12.10;;;4.47;;
71753;SDS011;59593;51.716;7.016;2023-12-20T13:18:25;16.53;;;5.30;;
71753;SDS011;59593;51.716;7.016;2023-12-20T13:20:50;17.57;;;5.33;;
71753;SDS011;59593;51.716;7.016;2023-12-20T13:23:16;17.47;;;5.00;;
71753;SDS011;59593;51.716;7.016;2023-12-20T13:25:43;16.53;;;4.63;;
71753;SDS011;59593;51.716;7.016;2023-12-20T13:28:10;21.10;;;5.57;;
71753;SDS011;59593;51.716;7.016;2023-12-20T13:30:36;15.60;;;4.90;;
71753;SDS011;59593;51.716;7.016;2023-12-20T13:33:02;11.70;;;4.83;;
71753;SDS011;59593;51.716;7.016;2023-12-20T13:35:27;20.47;;;5.50;;
71753;SDS011;59593;51.716;7.016;2023-12-20T13:37:53;19.83;;;6.10;;
71753;SDS011;59593;51.716;7.016;2023-12-20T13:40:19;15.23;;;5.83;;
71753;SDS011;59593;51.716;7.016;2023-12-20T13:42:44;16.53;;;5.53;;
71753;SDS011;59593;51.716;7.016;2023-12-20T13:45:10;16.47;;;5.60;;
71753;SDS011;59593;51.716;7.016;2023-12-20T13:47:36;13.27;;;5.03;;
71753;SDS011;59593;51.716;7.016;2023-12-20T13:50:02;18.93;;;5.67;;
71753;SDS011;59593;51.716;7.016;2023-12-20T13:52:29;22.33;;;6.43;;
71753;SDS011;59593;51.716;7.016;2023-12-20T13:54:54;22.43;;;7.80;;
71753;SDS011;59593;51.716;7.016;2023-12-20T13:57:20;16.53;;;6.63;;
71753;SDS011;59593;51.716;7.016;2023-12-20T13:59:46;18.30;;;6.87;;
71753;SDS011;59593;51.716;7.016;2023-12-20T14:02:11;17.97;;;6.40;;
71753;SDS011;59593;51.716;7.016;2023-12-20T14:04:37;11.83;;;6.10;;
71753;SDS011;59593;51.716;7.016;2023-12-20T14:07:04;15.60;;;7.93;;
71753;SDS011;59593;51.716;7.016;2023-12-20T14:09:30;22.30;;;7.57;;
71753;SDS011;59593;51.716;7.016;2023-12-20T14:11:55;15.43;;;6.90;;
71753;SDS011;59593;51.716;7.016;2023-12-20T14:14:21;15.23;;;6.67;;
71753;SDS011;59593;51.716;7.016;2023-12-20T14:16:47;15.10;;;7.20;;
71753;SDS011;59593;51.716;7.016;2023-12-20T14:19:12;21.57;;;7.47;;
71753;SDS011;59593;51.716;7.016;2023-12-20T14:21:38;16.97;;;7.03;;
71753;SDS011;59593;51.716;7.016;2023-12-20T14:24:04;15.33;;;6.73;;
71753;SDS011;59593;51.716;7.016;2023-12-20T14:26:30;17.83;;;7.30;;
71753;SDS011;59593;51.716;7.016;2023-12-20T14:28:56;17.57;;;7.07;;
71753;SDS011;59593;51.716;7.016;2023-12-20T14:31:22;18.60;;;6.70;;
71753;SDS011;59593;51.716;7.016;2023-12-20T14:33:49;15.97;;;6.63;;
71753;SDS011;59593;51.716;7.016;2023-12-20T14:36:18;22.03;;;7.00;;